Terminal Aerodrome Forecast
Issued by NWS Flagstaff, AZ

Home | Current Version | Previous Version | Text Only | Print | Product List | Glossary On
Versions: 1 2 3 4 5 6 7 8 9 10 11 12 13 14 15 16 17 18 19 20 21 22 23 24
000
FTUS45 KFGZ 242320
TAFFLG
TAF
KFLG 242320Z 2500/2524 22010KT P6SM VCSH SCT030 OVC060
      TEMPO 2500/2503 5SM -SHRA OVC030
     FM250300 VRB05KT P6SM BKN035 OVC080
     FM251800 21009KT P6SM SCT030 BKN050 PROB30 2518/2524 -SHRA
      BKN030=

USA.gov is the U.S. government's official web portal to all federal, state and local government web resources and services.